Time;durP1;ratioP1;P1;durP2;ratioP2;P2;SDS_P1;SDS_P2;PMS_P1;PMS_P2;Temp;Humidity;BMP_temperature;BMP_pressure;BME280_temperature;BME280_humidity;BME280_pressure;Samples;Min_cycle;Max_cycle;Signal;HPM_P1;HPM_P2
2021/11/03 00:01:36;;;;;;;0.08;0.08;;;7.80;99.90;;;;;;6249487;22;20038;-85
2021/11/03 00:04:04;;;;;;;0.10;0.10;;;7.70;99.90;;;;;;6249990;22;20012;-88
2021/11/03 00:06:32;;;;;;;0.00;0.00;;;7.80;99.90;;;;;;6300401;22;20062;-88
2021/11/03 00:09:00;;;;;;;0.10;0.10;;;7.70;99.90;;;;;;6300606;22;20065;-88
2021/11/03 00:11:28;;;;;;;0.00;0.00;;;7.80;99.90;;;;;;6274439;22;20011;-85
2021/11/03 00:13:55;;;;;;;0.00;0.00;;;7.80;99.90;;;;;;6298342;22;20023;-85
2021/11/03 00:16:22;;;;;;;0.00;0.00;;;7.80;99.90;;;;;;6298482;22;20325;-85
2021/11/03 00:18:49;;;;;;;0.10;0.10;;;8.40;99.90;;;;;;6274916;22;20019;-88
2021/11/03 00:21:16;;;;;;;0.08;0.08;;;7.80;99.90;;;;;;6248960;22;20477;-88
2021/11/03 00:23:43;;;;;;;0.00;0.00;;;7.80;99.90;;;;;;6299595;22;20019;-85
2021/11/03 00:26:09;;;;;;;0.10;0.10;;;7.80;99.90;;;;;;6324211;22;20490;-88
2021/11/03 00:28:36;;;;;;;0.10;0.10;;;7.80;99.90;;;;;;6247598;22;20507;-84
2021/11/03 00:31:04;;;;;;;0.10;0.10;;;7.90;99.90;;;;;;6323075;22;20047;-85
2021/11/03 00:33:33;;;;;;;0.00;0.00;;;7.80;99.90;;;;;;6274944;22;20015;-88
2021/11/03 00:36:00;;;;;;;0.03;0.03;;;7.80;99.90;;;;;;6301467;22;20038;-84
2021/11/03 00:38:27;;;;;;;0.10;0.10;;;7.80;99.90;;;;;;6300429;22;20019;-85
2021/11/03 00:40:55;;;;;;;0.10;0.10;;;7.80;99.90;;;;;;6327200;22;20023;-85
2021/11/03 00:43:22;;;;;;;0.00;0.00;;;7.80;99.90;;;;;;6300611;22;20474;-89
2021/11/03 00:45:49;;;;;;;0.10;0.10;;;7.80;99.90;;;;;;6300863;22;20344;-85
2021/11/03 00:48:17;;;;;;;0.10;0.10;;;7.80;99.90;;;;;;6301325;22;20019;-85
2021/11/03 00:50:44;;;;;;;0.13;0.13;;;7.80;99.90;;;;;;6303011;22;20015;-88
2021/11/03 00:53:11;;;;;;;0.10;0.10;;;7.70;99.90;;;;;;6275183;22;20011;-85
2021/11/03 00:55:39;;;;;;;0.00;0.00;;;7.70;99.90;;;;;;6276764;22;20073;-89
2021/11/03 00:58:06;;;;;;;0.10;0.10;;;7.80;99.90;;;;;;6302200;22;20023;-86
2021/11/03 01:00:34;;;;;;;0.10;0.10;;;7.70;99.90;;;;;;6249897;22;20015;-87
2021/11/03 01:03:02;;;;;;;0.00;0.00;;;7.70;99.90;;;;;;6252423;22;20080;-88
2021/11/03 01:05:29;;;;;;;0.00;0.00;;;7.70;99.90;;;;;;6301624;22;20019;-85
2021/11/03 01:07:56;;;;;;;0.03;0.03;;;7.70;99.90;;;;;;6275881;22;20339;-85
2021/11/03 01:10:24;;;;;;;0.00;0.00;;;7.70;99.90;;;;;;6251599;22;20015;-85
2021/11/03 01:12:52;;;;;;;0.10;0.10;;;7.70;99.90;;;;;;6276277;22;20015;-88
2021/11/03 01:15:22;;;;;;;0.10;0.10;;;7.80;99.90;;;;;;6325320;22;20064;-84
2021/11/03 01:17:48;;;;;;;0.10;0.10;;;7.70;99.90;;;;;;6326446;22;20027;-85
2021/11/03 01:20:15;;;;;;;0.00;0.00;;;7.70;99.90;;;;;;6250953;22;20046;-84
2021/11/03 01:22:42;;;;;;;0.00;0.00;;;7.70;99.90;;;;;;6252299;22;20414;-88
2021/11/03 01:25:11;;;;;;;0.10;0.10;;;7.70;99.90;;;;;;6251289;22;20042;-84
2021/11/03 01:27:38;;;;;;;0.10;0.10;;;7.70;99.90;;;;;;6300875;22;20025;-84
2021/11/03 01:30:08;;;;;;;0.10;0.10;;;7.60;99.90;;;;;;6276126;22;20098;-86
2021/11/03 01:32:35;;;;;;;0.10;0.10;;;7.60;99.90;;;;;;6300666;22;20354;-85
2021/11/03 01:35:04;;;;;;;0.20;0.20;;;7.60;99.90;;;;;;6250437;22;20051;-88
2021/11/03 01:37:31;;;;;;;0.00;0.00;;;7.60;99.90;;;;;;6301670;22;20341;-88
2021/11/03 01:39:58;;;;;;;0.10;0.10;;;7.60;99.90;;;;;;6252111;22;20027;-88
2021/11/03 01:42:25;;;;;;;0.10;0.10;;;7.60;99.90;;;;;;6301595;22;20471;-88
2021/11/03 01:44:52;;;;;;;0.30;0.25;;;7.50;99.90;;;;;;6302129;22;20019;-88
2021/11/03 01:47:45;;;;;;;0.00;0.00;;;7.50;99.90;;;;;;6250400;22;20077;-85
2021/11/03 01:50:15;;;;;;;0.10;0.10;;;7.50;99.90;;;;;;6326519;22;20057;-84
2021/11/03 01:52:45;;;;;;;0.10;0.10;;;7.60;99.90;;;;;;6299427;22;20015;-87
2021/11/03 01:55:14;;;;;;;0.05;0.05;;;7.50;99.90;;;;;;6301445;22;20341;-84
2021/11/03 01:57:47;;;;;;;0.00;0.00;;;7.50;99.90;;;;;;6302397;22;20019;-85
2021/11/03 02:00:27;;;;;;;0.10;0.10;;;7.50;99.90;;;;;;6327713;22;20038;-85
2021/11/03 02:02:59;;;;;;;0.00;0.00;;;7.50;99.90;;;;;;6301779;22;20103;-88
2021/11/03 02:05:26;;;;;;;0.00;0.00;;;7.50;99.90;;;;;;6301394;22;20054;-87
2021/11/03 02:07:54;;;;;;;0.00;0.00;;;7.50;99.90;;;;;;6276831;22;20044;-84
2021/11/03 02:10:21;;;;;;;0.08;0.08;;;7.50;99.90;;;;;;6276804;22;20015;-84
2021/11/03 02:12:48;;;;;;;0.10;0.10;;;7.50;99.90;;;;;;6274282;22;20520;-88
2021/11/03 02:15:16;;;;;;;0.05;0.05;;;7.60;99.90;;;;;;6301379;22;20058;-84
2021/11/03 02:17:44;;;;;;;0.10;0.10;;;7.50;99.90;;;;;;6300600;22;20011;-88
2021/11/03 02:20:17;;;;;;;0.30;0.30;;;7.50;99.90;;;;;;6276317;22;20019;-88
2021/11/03 02:23:19;;;;;;;0.00;0.00;;;7.50;99.90;;;;;;6301720;22;20022;-87
2021/11/03 02:25:55;;;;;;;0.10;0.10;;;7.50;99.90;;;;;;6179835;23;20021;-84
2021/11/03 02:28:23;;;;;;;0.10;0.10;;;7.40;99.90;;;;;;6283553;22;20015;-84
2021/11/03 02:30:50;;;;;;;0.00;0.00;;;7.40;99.90;;;;;;6275695;22;20013;-84
2021/11/03 02:33:23;;;;;;;0.10;0.10;;;7.40;99.90;;;;;;6300563;22;20519;-84
2021/11/03 02:36:01;;;;;;;0.00;0.00;;;7.40;99.90;;;;;;6299266;22;20015;-84
2021/11/03 02:38:40;;;;;;;0.10;0.10;;;7.40;99.90;;;;;;6300754;22;20015;-88
2021/11/03 02:41:11;;;;;;;0.10;0.10;;;7.40;99.90;;;;;;6300019;22;20023;-88
2021/11/03 02:44:03;;;;;;;0.10;0.10;;;7.30;99.90;;;;;;6300545;22;20498;-84
2021/11/03 02:46:30;;;;;;;0.10;0.10;;;7.40;99.90;;;;;;6300995;22;20019;-84
2021/11/03 02:48:57;;;;;;;0.10;0.10;;;7.40;99.90;;;;;;6326743;22;20065;-89
2021/11/03 02:51:40;;;;;;;0.03;0.03;;;7.30;99.90;;;;;;6275087;22;20011;-84
2021/11/03 02:54:14;;;;;;;0.10;0.10;;;7.30;99.90;;;;;;6299875;22;20015;-88
2021/11/03 02:56:45;;;;;;;0.10;0.10;;;7.30;99.90;;;;;;6300190;22;20016;-88
2021/11/03 02:59:12;;;;;;;0.10;0.10;;;7.30;99.90;;;;;;6324283;22;20068;-84
2021/11/03 03:01:44;;;;;;;0.10;0.10;;;7.20;99.90;;;;;;6300259;22;20038;-84
2021/11/03 03:04:15;;;;;;;0.10;0.10;;;7.20;99.90;;;;;;6300583;22;20015;-83
2021/11/03 03:06:43;;;;;;;0.00;0.00;;;7.30;99.90;;;;;;6301018;22;20019;-88
2021/11/03 03:09:11;;;;;;;0.00;0.00;;;7.30;99.90;;;;;;6275286;22;20018;-84
2021/11/03 03:11:41;;;;;;;0.10;0.10;;;7.20;99.90;;;;;;6299376;22;20063;-84
2021/11/03 03:14:08;;;;;;;0.38;0.38;;;7.20;99.90;;;;;;6300503;22;20030;-88
2021/11/03 03:16:35;;;;;;;0.10;0.10;;;7.20;99.90;;;;;;6298076;22;20452;-88
2021/11/03 03:19:03;;;;;;;0.10;0.10;;;7.20;99.90;;;;;;6275539;22;20022;-84
2021/11/03 03:21:30;;;;;;;0.10;0.10;;;7.20;99.90;;;;;;6275187;22;20015;-84
2021/11/03 03:24:03;;;;;;;0.15;0.15;;;7.20;99.90;;;;;;6300597;22;20015;-88
2021/11/03 03:26:30;;;;;;;0.00;0.00;;;7.20;99.90;;;;;;6300861;22;20420;-87
2021/11/03 03:28:57;;;;;;;0.00;0.00;;;7.20;99.90;;;;;;6301136;22;20039;-85
2021/11/03 03:31:26;;;;;;;0.00;0.00;;;7.30;99.90;;;;;;6324217;22;20019;-86
2021/11/03 03:33:56;;;;;;;0.10;0.10;;;7.20;99.90;;;;;;6300710;22;20015;-88
2021/11/03 03:36:23;;;;;;;0.10;0.10;;;7.20;99.90;;;;;;6300176;22;20504;-84
2021/11/03 03:38:51;;;;;;;0.10;0.10;;;7.20;99.90;;;;;;6250349;22;20456;-84
2021/11/03 03:41:21;;;;;;;0.10;0.10;;;7.20;99.90;;;;;;6300380;22;20026;-83
2021/11/03 03:43:48;;;;;;;0.10;0.10;;;7.20;99.90;;;;;;6299686;22;20024;-84
2021/11/03 03:46:15;;;;;;;0.10;0.10;;;7.10;99.90;;;;;;6248965;22;20351;-88
2021/11/03 03:48:42;;;;;;;0.10;0.10;;;7.10;99.90;;;;;;6273599;22;20019;-84
2021/11/03 03:51:10;;;;;;;0.10;0.10;;;7.10;99.90;;;;;;6275332;22;20022;-84
2021/11/03 03:53:37;;;;;;;0.05;0.05;;;7.10;99.90;;;;;;6299710;22;20015;-88
2021/11/03 03:56:05;;;;;;;0.10;0.10;;;7.10;99.90;;;;;;6275975;22;20015;-84
2021/11/03 03:58:32;;;;;;;0.00;0.00;;;7.10;99.90;;;;;;6300647;22;20347;-84
2021/11/03 04:00:59;;;;;;;0.00;0.00;;;7.10;99.90;;;;;;6324204;22;20015;-84
2021/11/03 04:03:26;;;;;;;0.10;0.10;;;7.10;99.90;;;;;;6274008;22;20026;-84
2021/11/03 04:05:54;;;;;;;0.10;0.10;;;7.10;99.90;;;;;;6248939;22;20015;-84
2021/11/03 04:08:24;;;;;;;0.10;0.10;;;7.10;99.90;;;;;;6275694;22;20019;-88
2021/11/03 04:10:51;;;;;;;0.10;0.10;;;7.00;99.90;;;;;;6326279;22;20015;-84
2021/11/03 04:13:20;;;;;;;0.10;0.10;;;7.00;99.90;;;;;;6327184;22;20051;-87
2021/11/03 04:15:47;;;;;;;0.08;0.08;;;7.00;99.90;;;;;;6276201;22;20053;-88
2021/11/03 04:18:14;;;;;;;0.10;0.10;;;7.00;99.90;;;;;;6300645;22;20071;-88
2021/11/03 04:20:42;;;;;;;0.10;0.10;;;7.00;99.90;;;;;;6297898;22;20479;-88
2021/11/03 04:23:08;;;;;;;0.10;0.10;;;7.00;99.90;;;;;;6275345;22;20019;-88
2021/11/03 04:25:36;;;;;;;0.03;0.03;;;6.90;99.90;;;;;;6249328;22;20460;-84
2021/11/03 04:28:05;;;;;;;0.10;0.10;;;6.90;99.90;;;;;;6300759;22;20016;-84
2021/11/03 04:30:33;;;;;;;0.10;0.10;;;6.90;99.90;;;;;;6276549;22;20061;-87
2021/11/03 04:33:00;;;;;;;0.10;0.10;;;6.90;99.90;;;;;;6326298;22;20011;-88
2021/11/03 04:35:27;;;;;;;0.10;0.10;;;6.90;99.90;;;;;;6298456;22;20042;-84
2021/11/03 04:37:55;;;;;;;0.10;0.10;;;6.90;99.90;;;;;;6299252;22;20026;-84
2021/11/03 04:40:23;;;;;;;0.10;0.10;;;6.90;99.90;;;;;;6326707;22;20038;-84
2021/11/03 04:42:50;;;;;;;0.10;0.10;;;7.10;99.90;;;;;;6301070;22;20015;-83
2021/11/03 04:45:19;;;;;;;0.10;0.10;;;7.00;99.90;;;;;;6276104;22;20023;-87
2021/11/03 04:47:46;;;;;;;0.10;0.10;;;6.90;99.90;;;;;;6275030;22;20019;-87
2021/11/03 04:50:17;;;;;;;0.10;0.10;;;6.90;99.90;;;;;;6273774;22;20019;-87
2021/11/03 04:52:44;;;;;;;0.10;0.10;;;6.90;99.90;;;;;;6299282;22;20011;-88
2021/11/03 04:55:11;;;;;;;0.10;0.10;;;6.90;99.90;;;;;;6300577;22;20058;-88
2021/11/03 04:57:39;;;;;;;0.17;0.17;;;6.80;99.90;;;;;;6299892;22;20016;-87
2021/11/03 05:00:09;;;;;;;0.10;0.10;;;6.90;99.90;;;;;;6275494;22;20031;-84
2021/11/03 05:02:36;;;;;;;0.10;0.10;;;6.80;99.90;;;;;;6300148;22;20015;-87
2021/11/03 05:05:03;;;;;;;0.10;0.10;;;6.90;99.90;;;;;;6326356;22;20015;-87
2021/11/03 05:07:30;;;;;;;0.10;0.10;;;6.80;99.90;;;;;;6248185;22;20026;-87
2021/11/03 05:09:57;;;;;;;0.10;0.10;;;6.90;99.90;;;;;;6249446;22;20067;-88
2021/11/03 05:12:23;;;;;;;0.10;0.10;;;6.80;99.90;;;;;;6299726;22;20094;-87
2021/11/03 05:14:50;;;;;;;0.10;0.10;;;6.80;99.90;;;;;;6250725;22;20026;-84
2021/11/03 05:17:17;;;;;;;0.10;0.10;;;6.80;99.90;;;;;;6275680;22;20379;-84
2021/11/03 05:19:43;;;;;;;0.10;0.10;;;7.20;99.90;;;;;;6299779;22;20019;-87
2021/11/03 05:22:12;;;;;;;0.10;0.10;;;6.80;99.90;;;;;;6275566;22;20015;-88
2021/11/03 05:24:39;;;;;;;0.10;0.10;;;6.80;99.90;;;;;;6277151;22;20098;-87
2021/11/03 05:27:06;;;;;;;0.10;0.10;;;6.80;99.90;;;;;;6251485;22;20109;-84
2021/11/03 05:29:33;;;;;;;0.10;0.10;;;6.80;99.90;;;;;;6301503;22;20054;-88
2021/11/03 05:32:00;;;;;;;0.00;0.00;;;6.70;99.90;;;;;;6251758;22;20015;-88
2021/11/03 05:34:27;;;;;;;0.00;0.00;;;6.80;99.90;;;;;;6327019;22;20068;-88
2021/11/03 05:36:53;;;;;;;0.10;0.10;;;6.70;99.90;;;;;;6250419;22;20106;-84
2021/11/03 05:39:20;;;;;;;0.03;0.03;;;7.20;99.90;;;;;;6300219;22;20017;-89
2021/11/03 05:41:47;;;;;;;0.10;0.10;;;6.70;99.90;;;;;;6252071;22;20474;-84
2021/11/03 05:44:17;;;;;;;0.10;0.10;;;6.70;99.90;;;;;;6326331;22;20019;-88
2021/11/03 05:46:50;;;;;;;0.10;0.10;;;6.70;99.90;;;;;;6302145;22;20325;-87
2021/11/03 05:49:20;;;;;;;0.08;0.08;;;6.90;99.90;;;;;;6301833;22;20019;-85
2021/11/03 05:51:49;;;;;;;0.10;0.10;;;6.60;99.90;;;;;;6326982;22;20015;-88
2021/11/03 05:54:17;;;;;;;0.10;0.10;;;6.60;99.90;;;;;;6299514;22;20407;-84
2021/11/03 05:56:46;;;;;;;0.10;0.10;;;6.50;99.90;;;;;;6275577;22;20067;-88
2021/11/03 05:59:15;;;;;;;0.10;0.10;;;6.50;99.90;;;;;;6275586;22;20015;-89
2021/11/03 06:01:41;;;;;;;0.10;0.10;;;6.50;99.90;;;;;;6300587;22;20019;-88
2021/11/03 06:04:08;;;;;;;0.10;0.10;;;6.60;99.90;;;;;;6251451;22;20054;-88
2021/11/03 06:06:37;;;;;;;0.10;0.10;;;6.50;99.90;;;;;;6251799;22;20023;-88
2021/11/03 06:09:05;;;;;;;0.10;0.10;;;6.50;99.90;;;;;;6251067;22;20079;-88
2021/11/03 06:11:33;;;;;;;0.10;0.10;;;6.50;99.90;;;;;;6325267;22;20463;-88
2021/11/03 06:14:00;;;;;;;0.10;0.10;;;6.40;99.90;;;;;;6276928;22;20039;-87
2021/11/03 06:16:27;;;;;;;0.43;0.20;;;6.40;99.90;;;;;;6277588;22;20023;-83
2021/11/03 06:18:53;;;;;;;0.10;0.10;;;6.40;99.90;;;;;;6325270;22;20090;-83
2021/11/03 06:21:20;;;;;;;0.10;0.10;;;6.30;99.90;;;;;;6250666;22;20011;-84
2021/11/03 06:23:47;;;;;;;0.10;0.10;;;6.30;99.90;;;;;;6300006;22;20080;-87
2021/11/03 06:26:16;;;;;;;0.10;0.10;;;6.30;99.90;;;;;;6299176;22;20018;-84
2021/11/03 06:28:43;;;;;;;0.10;0.10;;;6.30;99.90;;;;;;6325072;22;20733;-83
2021/11/03 06:31:10;;;;;;;0.10;0.10;;;6.30;99.90;;;;;;6273465;22;20016;-83
2021/11/03 06:33:37;;;;;;;0.10;0.10;;;6.30;99.90;;;;;;6324968;22;20011;-87
2021/11/03 06:36:06;;;;;;;0.10;0.10;;;6.30;99.90;;;;;;6325365;22;20015;-84
2021/11/03 06:38:33;;;;;;;0.20;0.20;;;6.30;99.90;;;;;;6300777;22;20027;-87
2021/11/03 06:41:01;;;;;;;0.00;0.00;;;6.30;99.90;;;;;;6248170;22;20398;-87
2021/11/03 06:43:28;;;;;;;0.10;0.10;;;6.30;99.90;;;;;;6273804;22;20019;-87
2021/11/03 06:45:55;;;;;;;0.10;0.10;;;6.30;99.90;;;;;;6300550;22;20019;-83
2021/11/03 06:48:22;;;;;;;0.10;0.10;;;6.30;99.90;;;;;;6299578;22;20022;-88
2021/11/03 06:50:51;;;;;;;0.17;0.17;;;6.30;99.90;;;;;;6298317;22;20015;-87
2021/11/03 06:53:21;;;;;;;0.10;0.10;;;6.30;99.90;;;;;;6248913;22;20015;-87
2021/11/03 06:55:50;;;;;;;0.10;0.10;;;6.30;99.90;;;;;;6276194;22;20439;-86
2021/11/03 06:58:22;;;;;;;0.30;0.30;;;6.30;99.90;;;;;;6299142;22;20080;-87
2021/11/03 07:00:51;;;;;;;0.10;0.10;;;6.40;99.90;;;;;;6274101;22;20026;-83
2021/11/03 07:03:19;;;;;;;0.08;0.08;;;6.20;99.90;;;;;;6305867;22;20317;-87
2021/11/03 07:05:47;;;;;;;0.10;0.10;;;6.30;99.90;;;;;;6275434;22;20020;-87
2021/11/03 07:08:16;;;;;;;0.10;0.10;;;6.30;99.90;;;;;;6325264;22;20053;-83
2021/11/03 07:10:47;;;;;;;0.10;0.10;;;6.30;99.90;;;;;;6300117;22;20015;-82
2021/11/03 07:13:16;;;;;;;0.10;0.10;;;6.20;99.90;;;;;;6298100;22;20061;-87
2021/11/03 07:15:43;;;;;;;0.00;0.00;;;6.20;99.90;;;;;;6323988;22;20022;-83
2021/11/03 07:18:10;;;;;;;0.20;0.20;;;6.20;99.90;;;;;;6274454;22;20034;-84
2021/11/03 07:20:37;;;;;;;0.10;0.10;;;6.20;99.90;;;;;;6299194;22;20471;-88
2021/11/03 07:23:04;;;;;;;0.10;0.10;;;6.20;99.90;;;;;;6300015;22;20015;-84
2021/11/03 07:25:31;;;;;;;0.10;0.10;;;6.20;99.90;;;;;;6301295;22;20034;-88
2021/11/03 07:27:57;;;;;;;0.10;0.10;;;6.10;99.90;;;;;;6248244;22;20356;-84
2021/11/03 07:30:30;;;;;;;0.10;0.10;;;6.10;99.90;;;;;;6248753;22;20182;-87
2021/11/03 07:32:58;;;;;;;0.20;0.20;;;6.20;99.90;;;;;;6299732;22;20061;-84
2021/11/03 07:35:25;;;;;;;0.10;0.10;;;6.00;99.90;;;;;;6300062;22;20011;-88
2021/11/03 07:37:52;;;;;;;0.10;0.10;;;6.00;99.90;;;;;;6276829;22;20019;-86
2021/11/03 07:40:22;;;;;;;0.10;0.10;;;6.10;99.90;;;;;;6276947;22;20026;-88
2021/11/03 07:42:50;;;;;;;0.10;0.10;;;6.10;99.90;;;;;;6301036;22;20053;-87
2021/11/03 07:45:16;;;;;;;0.10;0.10;;;6.00;99.90;;;;;;6298004;22;20058;-84
2021/11/03 07:47:44;;;;;;;0.10;0.10;;;6.00;99.90;;;;;;6323507;22;20329;-88
2021/11/03 07:50:18;;;;;;;0.10;0.10;;;5.90;99.90;;;;;;6247835;22;20384;-83
2021/11/03 07:52:44;;;;;;;0.10;0.10;;;5.90;99.90;;;;;;6300544;22;20015;-82
2021/11/03 07:55:12;;;;;;;0.10;0.10;;;5.90;99.90;;;;;;6300617;22;20019;-87
2021/11/03 07:57:39;;;;;;;0.10;0.10;;;5.90;99.90;;;;;;6274642;22;20019;-88
2021/11/03 08:00:16;;;;;;;0.10;0.10;;;6.00;99.90;;;;;;6323702;22;20019;-87
2021/11/03 08:02:42;;;;;;;0.20;0.20;;;6.00;99.90;;;;;;6324270;22;20501;-85
2021/11/03 08:05:09;;;;;;;0.20;0.20;;;5.90;99.90;;;;;;6249756;22;20072;-87
2021/11/03 08:07:36;;;;;;;0.10;0.10;;;5.90;99.90;;;;;;6249429;22;20145;-83
2021/11/03 08:10:04;;;;;;;0.10;0.10;;;5.90;99.90;;;;;;6299076;22;20011;-87
2021/11/03 08:12:30;;;;;;;0.10;0.10;;;5.90;99.90;;;;;;6299325;22;20012;-86
2021/11/03 08:14:57;;;;;;;0.10;0.10;;;5.90;99.90;;;;;;6247877;22;20412;-83
2021/11/03 08:17:27;;;;;;;0.10;0.10;;;5.90;99.90;;;;;;6247708;22;20047;-88
2021/11/03 08:19:56;;;;;;;0.10;0.10;;;6.00;99.90;;;;;;6298679;22;20019;-87
2021/11/03 08:22:24;;;;;;;0.10;0.10;;;6.00;99.90;;;;;;6273966;22;20023;-85
2021/11/03 08:24:53;;;;;;;0.10;0.10;;;6.00;99.90;;;;;;6298383;22;20026;-85
2021/11/03 08:27:22;;;;;;;0.10;0.10;;;6.00;99.90;;;;;;6297876;22;20019;-92
2021/11/03 08:29:50;;;;;;;0.10;0.10;;;6.00;99.90;;;;;;6276067;22;20099;-92
2021/11/03 08:32:28;;;;;;;0.10;0.10;;;6.00;99.90;;;;;;6278100;22;20039;-96
2021/11/03 08:34:56;;;;;;;0.10;0.10;;;6.10;99.90;;;;;;6300309;22;20055;-91
2021/11/03 08:37:30;;;;;;;0.10;0.10;;;6.00;99.90;;;;;;6298422;22;20016;-93
2021/11/03 08:40:07;;;;;;;0.10;0.10;;;6.10;99.90;;;;;;6302209;22;20116;-90
2021/11/03 08:42:33;;;;;;;0.10;0.10;;;6.00;99.90;;;;;;6300946;22;20077;-88
2021/11/03 08:45:00;;;;;;;0.10;0.10;;;6.00;99.90;;;;;;6250171;22;20027;-86
2021/11/03 08:47:27;;;;;;;0.10;0.10;;;6.10;99.90;;;;;;6302765;22;20019;-94
2021/11/03 08:49:54;;;;;;;0.08;0.08;;;6.10;99.90;;;;;;6299795;22;20042;-90
2021/11/03 08:52:21;;;;;;;0.10;0.10;;;6.20;99.90;;;;;;6247691;22;20685;-86
2021/11/03 08:54:49;;;;;;;0.10;0.10;;;6.10;99.90;;;;;;6273009;22;20012;-85
2021/11/03 08:57:19;;;;;;;0.10;0.10;;;6.20;99.90;;;;;;6251739;22;20016;-91
2021/11/03 08:59:48;;;;;;;0.10;0.10;;;6.20;99.90;;;;;;6300933;22;20011;-85
2021/11/03 09:02:14;;;;;;;0.10;0.10;;;6.20;99.90;;;;;;6299467;22;20011;-92
2021/11/03 09:04:41;;;;;;;0.10;0.10;;;6.20;99.90;;;;;;6325462;22;20504;-91
2021/11/03 09:07:11;;;;;;;0.10;0.10;;;6.20;99.90;;;;;;6274023;22;20443;-91
2021/11/03 09:09:40;;;;;;;0.10;0.10;;;6.30;99.90;;;;;;6275811;22;20011;-80
2021/11/03 09:12:07;;;;;;;0.10;0.10;;;6.10;99.90;;;;;;6274011;22;20089;-83
2021/11/03 09:14:34;;;;;;;0.10;0.10;;;6.10;99.90;;;;;;6273970;22;20022;-87
2021/11/03 09:17:02;;;;;;;0.10;0.10;;;6.10;99.90;;;;;;6299806;22;20019;-81
2021/11/03 09:19:29;;;;;;;0.10;0.10;;;6.00;99.90;;;;;;6299940;22;20348;-81
2021/11/03 09:21:56;;;;;;;0.10;0.10;;;6.10;99.90;;;;;;6274076;22;20102;-86
2021/11/03 09:24:22;;;;;;;0.10;0.10;;;6.00;99.90;;;;;;6248167;22;20443;-86
2021/11/03 09:26:49;;;;;;;0.10;0.10;;;6.00;99.90;;;;;;6299920;22;20015;-86
2021/11/03 09:29:16;;;;;;;0.10;0.10;;;6.10;99.90;;;;;;6324022;22;20026;-81
2021/11/03 09:31:44;;;;;;;0.10;0.10;;;6.00;99.90;;;;;;6248910;22;20046;-86
2021/11/03 09:34:12;;;;;;;0.10;0.10;;;6.00;99.90;;;;;;6298653;22;20106;-82
2021/11/03 09:36:42;;;;;;;0.10;0.10;;;6.20;99.90;;;;;;6273765;22;20073;-81
2021/11/03 09:39:12;;;;;;;0.10;0.10;;;6.10;99.90;;;;;;6273504;22;20019;-85
2021/11/03 09:41:50;;;;;;;0.10;0.10;;;6.10;99.90;;;;;;6324109;22;20011;-82
2021/11/03 09:44:27;;;;;;;0.10;0.10;;;6.20;99.90;;;;;;6298727;22;20452;-86
2021/11/03 09:47:20;;;;;;;0.10;0.10;;;6.20;99.90;;;;;;6299417;22;20019;-86
2021/11/03 09:49:57;;;;;;;0.10;0.10;;;6.20;99.90;;;;;;6284169;22;20019;-81
2021/11/03 09:52:39;;;;;;;0.10;0.10;;;6.20;99.90;;;;;;6298861;22;20011;-86
2021/11/03 09:55:20;;;;;;;0.10;0.10;;;6.20;99.90;;;;;;6299128;22;20017;-82
2021/11/03 09:58:18;;;;;;;0.10;0.10;;;6.20;99.90;;;;;;6299403;22;20012;-82
2021/11/03 10:01:17;;;;;;;0.10;0.10;;;6.20;99.90;;;;;;6194001;22;20035;-81
2021/11/03 10:03:52;;;;;;;0.10;0.10;;;6.40;99.90;;;;;;6299075;22;20015;-82
2021/11/03 10:06:22;;;;;;;0.10;0.10;;;6.40;99.90;;;;;;6298660;22;20445;-82
2021/11/03 10:08:51;;;;;;;0.20;0.20;;;7.20;99.90;;;;;;6299716;22;20027;-85
2021/11/03 10:11:29;;;;;;;0.10;0.10;;;6.60;99.90;;;;;;6298148;22;20019;-82
2021/11/03 10:13:58;;;;;;;0.10;0.10;;;6.60;99.90;;;;;;6298512;22;20015;-86
2021/11/03 10:16:38;;;;;;;0.10;0.10;;;6.70;99.90;;;;;;6273141;22;20050;-85
2021/11/03 10:19:14;;;;;;;0.10;0.10;;;6.70;99.90;;;;;;6299152;22;20029;-86
2021/11/03 10:22:25;;;;;;;0.10;0.10;;;6.70;99.90;;;;;;6298933;22;20023;-81
2021/11/03 10:25:26;;;;;;;0.10;0.10;;;6.70;99.90;;;;;;6242693;22;20019;-83
2021/11/03 10:27:59;;;;;;;0.10;0.10;;;6.70;99.90;;;;;;6298840;22;20042;-88
2021/11/03 10:30:37;;;;;;;0.10;0.10;;;6.70;99.90;;;;;;6297952;22;20015;-83
2021/11/03 10:33:21;;;;;;;0.10;0.10;;;6.80;99.90;;;;;;6325144;22;20022;-83
2021/11/03 10:36:14;;;;;;;0.05;0.05;;;6.80;99.90;;;;;;6298501;22;20019;-81
2021/11/03 10:38:46;;;;;;;0.00;0.00;;;6.80;99.90;;;;;;6283533;22;20015;-87
2021/11/03 10:41:20;;;;;;;0.10;0.10;;;6.80;99.90;;;;;;6323767;22;20011;-81
2021/11/03 10:44:16;;;;;;;0.38;0.38;;;6.80;99.90;;;;;;6298774;22;20027;-85
2021/11/03 10:46:53;;;;;;;0.10;0.10;;;6.90;99.90;;;;;;6299076;22;20840;-83
2021/11/03 10:49:34;;;;;;;0.10;0.10;;;6.90;99.90;;;;;;6301811;22;20022;-85
2021/11/03 10:52:16;;;;;;;0.10;0.10;;;7.00;99.90;;;;;;6273684;22;20094;-82
2021/11/03 10:55:14;;;;;;;0.17;0.17;;;7.10;99.90;;;;;;6298772;22;20098;-83
2021/11/03 10:57:45;;;;;;;0.00;0.00;;;7.10;99.90;;;;;;6247092;22;20344;-90
2021/11/03 11:00:27;;;;;;;0.10;0.10;;;7.00;99.90;;;;;;6298784;22;20019;-88
2021/11/03 11:03:02;;;;;;;0.10;0.10;;;7.20;99.90;;;;;;6299597;22;20020;-89
2021/11/03 11:05:32;;;;;;;0.00;0.00;;;7.20;99.90;;;;;;6299336;22;20448;-89
2021/11/03 11:08:22;;;;;;;0.10;0.10;;;7.40;99.90;;;;;;6299541;22;20019;-83
2021/11/03 11:11:07;;;;;;;0.10;0.10;;;7.30;99.90;;;;;;6324580;22;20046;-91
2021/11/03 11:13:42;;;;;;;1.30;0.20;;;7.40;99.90;;;;;;6298796;22;20046;-87
2021/11/03 11:16:14;;;;;;;0.00;0.00;;;7.40;99.90;;;;;;6300117;22;20017;-85
2021/11/03 11:18:49;;;;;;;0.10;0.10;;;7.70;99.90;;;;;;6323552;22;20015;-89
2021/11/03 11:21:25;;;;;;;0.10;0.10;;;7.30;99.90;;;;;;6298427;22;20023;-88
2021/11/03 11:24:00;;;;;;;;;;;7.30;99.90;;;;;;6299354;22;20018;-86
2021/11/03 11:26:54;;;;;;;0.10;0.10;;;7.20;99.90;;;;;;6299186;22;19911;-90
2021/11/03 11:29:33;;;;;;;0.10;0.10;;;7.30;99.90;;;;;;6298789;22;20019;-88
2021/11/03 11:32:34;;;;;;;0.10;0.10;;;7.40;99.90;;;;;;6298529;22;20346;-80
2021/11/03 11:35:01;;;;;;;0.10;0.10;;;7.30;99.90;;;;;;6292793;22;20048;-91
2021/11/03 11:37:43;;;;;;;0.00;0.00;;;7.30;99.90;;;;;;6298876;22;20746;-90
2021/11/03 11:40:41;;;;;;;0.10;0.10;;;7.30;99.90;;;;;;6297734;22;20022;-90
2021/11/03 11:43:46;;;;;;;0.10;0.10;;;7.30;99.90;;;;;;6300700;22;20053;-80
2021/11/03 11:46:19;;;;;;;0.10;0.10;;;7.20;99.90;;;;;;6323559;22;20019;-80
2021/11/03 11:48:52;;;;;;;0.10;0.10;;;7.20;99.90;;;;;;6301018;22;20487;-91
2021/11/03 11:51:30;;;;;;;0.10;0.10;;;7.20;99.90;;;;;;6300270;22;20011;-80
2021/11/03 11:53:58;;;;;;;0.08;0.08;;;7.20;99.90;;;;;;6325451;22;20015;-80
2021/11/03 11:56:36;;;;;;;0.10;0.10;;;7.30;99.90;;;;;;6300581;22;20074;-86
2021/11/03 11:59:12;;;;;;;0.10;0.10;;;7.30;99.90;;;;;;6248859;22;20019;-88
2021/11/03 12:01:47;;;;;;;0.03;0.03;;;7.40;99.90;;;;;;6297914;22;20164;-90
2021/11/03 12:04:29;;;;;;;0.00;0.00;;;7.40;99.90;;;;;;6326268;22;20015;-80
2021/11/03 12:06:55;;;;;;;0.10;0.10;;;7.30;99.90;;;;;;6301140;22;20019;-78
2021/11/03 12:09:31;;;;;;;0.10;0.10;;;7.40;99.90;;;;;;6301427;22;20077;-89
2021/11/03 12:12:07;;;;;;;0.10;0.10;;;7.40;99.90;;;;;;6300100;22;20015;-89
2021/11/03 12:14:43;;;;;;;0.10;0.10;;;7.40;99.90;;;;;;6323621;22;20015;-89
2021/11/03 12:17:15;;;;;;;0.00;0.00;;;7.40;99.90;;;;;;6298315;22;20116;-85
2021/11/03 12:19:52;;;;;;;0.73;0.30;;;7.40;99.90;;;;;;6323067;22;20015;-86
2021/11/03 12:22:19;;;;;;;0.10;0.10;;;7.50;99.90;;;;;;6304189;22;20015;-87
2021/11/03 12:24:48;;;;;;;0.10;0.10;;;7.40;99.90;;;;;;6299434;22;20463;-85
2021/11/03 12:27:24;;;;;;;0.03;0.03;;;7.40;99.90;;;;;;6297575;22;20034;-86
2021/11/03 12:30:05;;;;;;;0.10;0.10;;;7.50;99.90;;;;;;6297164;22;20022;-86
2021/11/03 12:32:44;;;;;;;0.10;0.10;;;7.80;99.90;;;;;;6297605;22;20016;-86
2021/11/03 12:35:19;;;;;;;0.10;0.10;;;7.40;99.90;;;;;;6298087;22;20046;-86
2021/11/03 12:37:58;;;;;;;0.10;0.10;;;7.30;99.90;;;;;;6297418;22;20026;-86
2021/11/03 12:40:36;;;;;;;0.10;0.10;;;7.30;99.90;;;;;;6323766;22;20054;-87
2021/11/03 12:43:23;;;;;;;0.43;0.25;;;7.30;99.90;;;;;;6298257;22;20015;-86
2021/11/03 12:46:09;;;;;;;0.10;0.10;;;7.30;99.90;;;;;;6297653;22;20448;-85
2021/11/03 12:48:56;;;;;;;0.10;0.10;;;7.20;99.90;;;;;;6297387;22;20507;-87
2021/11/03 12:51:28;;;;;;;0.10;0.10;;;7.20;99.90;;;;;;6323773;22;20348;-86
2021/11/03 12:54:01;;;;;;;0.08;0.08;;;7.20;99.90;;;;;;6322718;22;20094;-85
2021/11/03 12:56:34;;;;;;;0.10;0.10;;;7.20;99.90;;;;;;6297640;22;20015;-86
2021/11/03 12:59:04;;;;;;;0.10;0.10;;;7.20;99.90;;;;;;6297690;22;20019;-87
2021/11/03 13:01:46;;;;;;;0.00;0.00;;;7.20;99.90;;;;;;6297627;22;20046;-83
2021/11/03 13:04:22;;;;;;;0.10;0.10;;;7.30;99.90;;;;;;6323415;22;20015;-86
2021/11/03 13:07:23;;;;;;;0.10;0.10;;;7.30;99.90;;;;;;6297010;22;20022;-88
2021/11/03 13:10:04;;;;;;;0.10;0.10;;;7.30;99.90;;;;;;6251251;22;20085;-86
2021/11/03 13:12:36;;;;;;;0.00;0.00;;;7.30;99.90;;;;;;6297469;22;20019;-85
2021/11/03 13:15:52;;;;;;;0.10;0.10;;;7.20;99.90;;;;;;6322900;22;20011;-85
2021/11/03 13:18:33;;;;;;;0.10;0.10;;;7.30;99.90;;;;;;6199728;23;20017;-84
2021/11/03 13:21:05;;;;;;;0.10;0.10;;;7.30;99.90;;;;;;6200227;23;20013;-85